Time;durP1;ratioP1;P1;durP2;ratioP2;P2;SDS_P1;SDS_P2;PMS_P1;PMS_P2;Temp;Humidity;BMP_temperature;BMP_pressure;BME280_temperature;BME280_humidity;BME280_pressure;Samples;Min_cycle;Max_cycle;Signal;HPM_P1;HPM_P2
2023/01/03 00:00:45;;;;;;;49.70;34.10;;;12.00;91.30;;;;;;5112782;28;20042;-74
2023/01/03 00:03:15;;;;;;;49.42;34.33;;;11.90;91.30;;;;;;5112408;28;20055;-74
2023/01/03 00:05:42;;;;;;;46.58;33.72;;;11.90;91.30;;;;;;5094265;28;20031;-73
2023/01/03 00:08:08;;;;;;;48.42;36.00;;;11.90;91.20;;;;;;5112323;28;20023;-73
2023/01/03 00:10:34;;;;;;;49.15;33.33;;;11.90;91.40;;;;;;5112272;28;20108;-73
2023/01/03 00:12:59;;;;;;;45.20;34.88;;;11.90;91.20;;;;;;5112435;28;20023;-74
2023/01/03 00:15:25;;;;;;;51.15;33.38;;;12.00;91.20;;;;;;5094017;28;20052;-74
2023/01/03 00:17:52;;;;;;;41.85;30.23;;;12.00;91.20;;;;;;5093985;28;20028;-73
2023/01/03 00:20:18;;;;;;;44.25;32.38;;;12.00;91.30;;;;;;5095752;28;20104;-74
2023/01/03 00:22:44;;;;;;;43.90;32.42;;;12.00;91.00;;;;;;5115682;28;20481;-72
2023/01/03 00:25:10;;;;;;;44.78;32.55;;;12.00;91.10;;;;;;5115947;28;20039;-73
2023/01/03 00:27:35;;;;;;;41.45;31.25;;;12.00;91.20;;;;;;5116008;28;20364;-74
2023/01/03 00:30:01;;;;;;;44.58;31.83;;;11.90;91.20;;;;;;5115726;28;20040;-73
2023/01/03 00:32:27;;;;;;;41.83;30.08;;;11.90;91.20;;;;;;5115899;28;20490;-73
2023/01/03 00:34:53;;;;;;;42.55;30.13;;;11.90;91.20;;;;;;5116101;28;20479;-73
2023/01/03 00:37:18;;;;;;;43.65;30.80;;;11.90;91.20;;;;;;5115671;28;20048;-73
2023/01/03 00:39:44;;;;;;;40.65;29.63;;;11.90;91.10;;;;;;5097331;28;20114;-74
2023/01/03 00:42:10;;;;;;;43.20;29.83;;;12.00;91.30;;;;;;5115752;28;20047;-73
2023/01/03 00:44:36;;;;;;;34.38;28.23;;;12.00;91.30;;;;;;5115464;28;20039;-73
2023/01/03 00:47:01;;;;;;;43.50;29.77;;;12.10;91.20;;;;;;5115579;28;20038;-73
2023/01/03 00:49:27;;;;;;;39.67;29.02;;;12.10;91.30;;;;;;5097078;28;20122;-73
2023/01/03 00:51:53;;;;;;;41.05;28.65;;;12.10;91.10;;;;;;5115404;28;20111;-72
2023/01/03 00:54:20;;;;;;;42.72;28.20;;;12.10;91.10;;;;;;5096946;28;20027;-73
2023/01/03 00:56:47;;;;;;;37.72;27.90;;;12.10;91.20;;;;;;5115217;28;20483;-73
2023/01/03 00:59:15;;;;;;;39.65;27.00;;;12.10;91.20;;;;;;5115456;28;20495;-73
2023/01/03 01:01:42;;;;;;;36.20;26.50;;;12.10;91.20;;;;;;5115427;28;20058;-73
2023/01/03 01:04:12;;;;;;;41.97;26.30;;;12.00;91.20;;;;;;5115157;28;20031;-74
2023/01/03 01:06:46;;;;;;;38.85;24.67;;;12.00;91.20;;;;;;5096984;28;20487;-73
2023/01/03 01:09:16;;;;;;;36.95;26.02;;;12.00;91.10;;;;;;5115192;28;20228;-72
2023/01/03 01:11:42;;;;;;;37.67;25.85;;;12.00;91.10;;;;;;5115241;28;20100;-73
2023/01/03 01:14:21;;;;;;;35.25;24.20;;;12.00;91.10;;;;;;5114932;28;20020;-74
2023/01/03 01:16:49;;;;;;;35.22;25.27;;;12.00;91.20;;;;;;5114944;28;20079;-72
2023/01/03 01:19:16;;;;;;;36.75;24.42;;;12.00;91.10;;;;;;5096392;28;20047;-72
2023/01/03 01:21:43;;;;;;;31.92;23.17;;;12.10;91.10;;;;;;5096828;28;20035;-73
2023/01/03 01:24:09;;;;;;;34.40;23.85;;;12.10;91.10;;;;;;5097172;28;20032;-73
2023/01/03 01:26:34;;;;;;;35.92;25.23;;;12.10;91.10;;;;;;5115816;28;20038;-73
2023/01/03 01:29:00;;;;;;;36.65;24.70;;;12.10;91.20;;;;;;5096391;28;20134;-73
2023/01/03 01:31:26;;;;;;;38.00;24.35;;;12.10;91.20;;;;;;5114240;28;20028;-74
2023/01/03 01:33:53;;;;;;;33.65;24.83;;;12.10;91.30;;;;;;5095892;28;20100;-72
2023/01/03 01:36:21;;;;;;;35.50;24.10;;;12.10;91.20;;;;;;5095940;28;20035;-73
2023/01/03 01:38:51;;;;;;;34.17;23.70;;;12.10;91.10;;;;;;5096426;28;20423;-73
2023/01/03 01:44:36;;;;;;;32.92;24.25;;;12.00;91.10;;;;;;5095919;28;20244;-72
2023/01/03 01:44:38;;;;;;;39.35;24.55;;;12.00;91.10;;;;;;5114080;28;20127;-72
2023/01/03 01:47:20;;;;;;;34.25;23.42;;;11.90;91.10;;;;;;5114437;28;20491;-73
2023/01/03 01:49:51;;;;;;;33.45;24.00;;;11.80;91.10;;;;;;5114448;28;20035;-73
2023/01/03 01:52:18;;;;;;;32.90;24.38;;;11.80;91.10;;;;;;5114156;28;20028;-71
2023/01/03 01:54:45;;;;;;;32.75;23.35;;;11.80;91.20;;;;;;5114069;28;20063;-75
2023/01/03 01:57:15;;;;;;;36.35;24.42;;;11.80;91.20;;;;;;5113925;28;20048;-73
2023/01/03 01:59:41;;;;;;;34.40;23.60;;;11.80;91.30;;;;;;5114275;28;20482;-72
2023/01/03 02:02:08;;;;;;;34.03;25.38;;;11.70;91.30;;;;;;5114185;28;20040;-73
2023/01/03 02:04:38;;;;;;;36.67;24.73;;;11.80;91.30;;;;;;5096340;28;20038;-74
2023/01/03 02:07:05;;;;;;;35.03;25.05;;;11.80;91.30;;;;;;5113692;28;20042;-73
2023/01/03 02:09:33;;;;;;;35.70;24.85;;;11.90;91.20;;;;;;5095829;28;20024;-73
2023/01/03 02:15:29;;;;;;;32.88;23.15;;;11.90;91.30;;;;;;5115567;28;20469;-72
2023/01/03 02:18:12;;;;;;;28.00;22.17;;;12.00;91.30;;;;;;5113834;28;20110;-73
2023/01/03 02:20:49;;;;;;;33.42;22.65;;;12.00;91.20;;;;;;5095259;28;20052;-72
2023/01/03 02:23:15;;;;;;;31.60;22.40;;;12.00;91.20;;;;;;5113585;28;20047;-74
2023/01/03 02:25:59;;;;;;;29.05;21.17;;;12.00;91.40;;;;;;5113425;28;20039;-73
2023/01/03 02:28:27;;;;;;;35.78;22.75;;;12.00;91.10;;;;;;5113786;28;20032;-73
2023/01/03 02:31:02;;;;;;;33.00;21.83;;;12.00;91.00;;;;;;5113568;28;20101;-73
2023/01/03 02:33:40;;;;;;;29.50;21.65;;;12.00;91.00;;;;;;5095065;28;20495;-73
2023/01/03 02:36:30;;;;;;;32.60;21.45;;;11.90;91.00;;;;;;5094769;28;20071;-74
2023/01/03 02:39:02;;;;;;;29.98;20.65;;;12.00;91.10;;;;;;5095073;28;20039;-73
2023/01/03 02:41:44;;;;;;;32.55;20.45;;;12.00;91.10;;;;;;5113277;28;20444;-74
2023/01/03 02:44:25;;;;;;;29.63;20.13;;;12.10;91.10;;;;;;5094363;28;20046;-73
2023/01/03 02:47:05;;;;;;;27.20;20.00;;;12.10;91.10;;;;;;5113169;28;20028;-73
2023/01/03 02:49:39;;;;;;;28.48;18.90;;;12.10;91.10;;;;;;5113304;28;20065;-74
2023/01/03 02:52:11;;;;;;;29.45;20.08;;;12.10;91.00;;;;;;5112883;28;20027;-73
2023/01/03 02:54:50;;;;;;;28.35;19.98;;;12.20;91.10;;;;;;5113115;28;20039;-74
2023/01/03 02:57:20;;;;;;;27.20;19.20;;;12.20;91.10;;;;;;5094795;28;20046;-72
2023/01/03 02:59:52;;;;;;;24.67;18.10;;;12.20;91.00;;;;;;5113130;28;20041;-73
2023/01/03 03:02:21;;;;;;;26.48;18.55;;;12.20;91.00;;;;;;5094995;28;20483;-73
2023/01/03 03:04:51;;;;;;;26.95;18.98;;;12.20;90.90;;;;;;5095431;28;20058;-72
2023/01/03 03:07:32;;;;;;;28.17;18.25;;;12.30;91.00;;;;;;5095305;28;20126;-73
2023/01/03 03:15:58;;;;;;;23.83;16.58;;;12.40;91.00;;;;;;5113392;28;20062;-72
2023/01/03 03:18:31;;;;;;;26.50;17.65;;;12.40;90.70;;;;;;5113138;28;20478;-73
2023/01/03 03:26:39;;;;;;;23.27;16.13;;;12.40;90.70;;;;;;5113189;28;20078;-72
2023/01/03 03:29:14;;;;;;;23.73;16.25;;;12.50;90.70;;;;;;5094452;28;20153;-73
2023/01/03 03:31:46;;;;;;;23.60;16.20;;;12.50;90.80;;;;;;5112952;28;20093;-73
2023/01/03 03:34:20;;;;;;;21.80;16.20;;;12.50;90.60;;;;;;5112615;28;20410;-73
2023/01/03 03:36:46;;;;;;;24.02;16.50;;;12.50;90.70;;;;;;5094533;28;20335;-73
2023/01/03 03:45:07;;;;;;;27.38;17.20;;;12.50;90.50;;;;;;5112480;28;20096;-73
2023/01/03 03:47:36;;;;;;;;;;;12.50;90.50;;;;;;5095398;28;20518;-73
2023/01/03 03:50:13;;;;;;;26.67;17.60;;;12.50;90.50;;;;;;5111746;28;19911;-74
2023/01/03 03:52:44;;;;;;;25.75;15.98;;;12.50;90.40;;;;;;5112927;28;20047;-72
2023/01/03 03:55:42;;;;;;;28.05;17.83;;;12.50;90.50;;;;;;5117211;28;20031;-72
2023/01/03 03:58:15;;;;;;;22.60;16.08;;;12.50;90.50;;;;;;5099305;28;20043;-73
2023/01/03 04:00:42;;;;;;;24.17;15.80;;;12.50;90.50;;;;;;5116701;28;20069;-73
2023/01/03 04:03:11;;;;;;;24.63;16.38;;;12.50;90.60;;;;;;5116658;28;20406;-72
2023/01/03 04:05:40;;;;;;;24.90;16.75;;;12.50;90.60;;;;;;5116532;28;20498;-71
2023/01/03 04:08:06;;;;;;;24.02;16.52;;;12.60;90.70;;;;;;5098568;28;20036;-72
2023/01/03 04:10:32;;;;;;;25.30;17.33;;;12.60;90.50;;;;;;5098298;28;20039;-74
2023/01/03 04:12:57;;;;;;;24.15;16.80;;;12.60;90.70;;;;;;5098252;28;20032;-73
2023/01/03 04:15:23;;;;;;;24.52;16.67;;;12.60;90.40;;;;;;5116234;28;20067;-73
2023/01/03 04:17:49;;;;;;;27.67;17.63;;;12.60;90.40;;;;;;5097958;28;20040;-73
2023/01/03 04:20:14;;;;;;;29.15;17.00;;;12.60;90.30;;;;;;5116165;28;20458;-72
2023/01/03 04:22:40;;;;;;;27.95;17.45;;;12.60;90.40;;;;;;5097801;28;20411;-73
2023/01/03 04:25:07;;;;;;;30.23;17.42;;;12.60;90.50;;;;;;5115810;28;20012;-74
2023/01/03 04:27:33;;;;;;;24.88;17.38;;;12.60;90.40;;;;;;5097519;28;20130;-73
2023/01/03 04:29:58;;;;;;;24.20;16.13;;;12.60;90.50;;;;;;5116080;28;20479;-73
2023/01/03 04:32:24;;;;;;;30.77;18.67;;;12.70;90.50;;;;;;5116040;28;20104;-73
2023/01/03 04:34:50;;;;;;;28.38;18.20;;;12.70;90.40;;;;;;5097535;28;20055;-72
2023/01/03 04:37:16;;;;;;;25.50;17.52;;;12.70;90.50;;;;;;5115650;28;20044;-73
2023/01/03 04:39:41;;;;;;;27.80;18.95;;;12.70;90.50;;;;;;5097943;28;20035;-73
2023/01/03 04:44:51;;;;;;;;;;;12.60;90.70;;;;;;5116730;28;20147;-72
2023/01/03 04:47:18;;;;;;;24.88;17.80;;;12.70;90.60;;;;;;5118238;28;19961;-71
2023/01/03 04:49:47;;;;;;;25.63;17.77;;;12.70;90.60;;;;;;5116051;28;20027;-72
2023/01/03 04:52:16;;;;;;;26.33;18.48;;;12.60;90.50;;;;;;5116215;28;20040;-73
2023/01/03 04:54:42;;;;;;;25.92;18.20;;;12.60;90.50;;;;;;5115814;28;20031;-73
2023/01/03 04:57:08;;;;;;;27.15;19.20;;;12.60;90.70;;;;;;5097393;28;20047;-73
2023/01/03 04:59:34;;;;;;;27.05;18.50;;;12.60;90.60;;;;;;5115465;28;20360;-73
2023/01/03 05:02:00;;;;;;;26.60;19.35;;;12.60;90.60;;;;;;5115617;28;20044;-73
2023/01/03 05:04:27;;;;;;;28.42;18.35;;;12.60;90.70;;;;;;5115651;28;20107;-73
2023/01/03 05:06:54;;;;;;;27.20;17.75;;;12.60;90.70;;;;;;5114945;28;20512;-73
2023/01/03 05:09:19;;;;;;;29.05;17.83;;;12.60;90.70;;;;;;5097219;28;20028;-73
2023/01/03 05:11:45;;;;;;;27.40;18.23;;;12.70;90.60;;;;;;5115641;28;20100;-73
2023/01/03 05:14:11;;;;;;;25.23;18.20;;;12.70;90.60;;;;;;5115743;28;20023;-73
2023/01/03 05:16:37;;;;;;;26.20;17.70;;;12.70;90.70;;;;;;5096837;28;20042;-73
2023/01/03 05:19:03;;;;;;;25.05;17.75;;;12.70;90.70;;;;;;5096818;28;20471;-73
2023/01/03 05:27:00;;;;;;;27.48;17.73;;;12.70;90.70;;;;;;5115334;28;20084;-73
2023/01/03 05:29:28;;;;;;;26.95;17.70;;;12.70;90.80;;;;;;5115103;28;20032;-73
2023/01/03 05:31:54;;;;;;;23.77;17.13;;;12.70;90.80;;;;;;5114956;28;20032;-73
2023/01/03 05:34:19;;;;;;;24.42;16.45;;;12.70;90.70;;;;;;5114965;28;20375;-73
2023/01/03 05:36:45;;;;;;;25.40;17.40;;;12.70;90.60;;;;;;5115333;28;20063;-72
2023/01/03 05:39:11;;;;;;;26.70;16.92;;;12.70;90.60;;;;;;5115705;28;20386;-73
2023/01/03 05:44:21;;;;;;;23.92;16.95;;;12.80;90.50;;;;;;5114646;28;20522;-73
2023/01/03 05:46:47;;;;;;;25.17;17.13;;;12.80;90.70;;;;;;5096414;28;20028;-73
2023/01/03 05:49:12;;;;;;;34.50;17.40;;;12.80;90.60;;;;;;5114693;28;20035;-74
2023/01/03 05:51:38;;;;;;;24.58;16.45;;;12.90;90.60;;;;;;5096847;28;20039;-72
2023/01/03 05:54:04;;;;;;;32.03;16.15;;;12.90;90.60;;;;;;5114665;28;20034;-72
2023/01/03 05:56:30;;;;;;;27.48;16.90;;;12.90;90.60;;;;;;5096175;28;20055;-73
2023/01/03 05:58:56;;;;;;;26.58;17.27;;;12.90;90.60;;;;;;5114613;28;20055;-74
2023/01/03 06:01:25;;;;;;;26.20;16.55;;;12.90;90.60;;;;;;5096074;28;20561;-73
2023/01/03 06:03:51;;;;;;;23.08;16.17;;;12.90;90.60;;;;;;5096406;28;20028;-72
2023/01/03 06:06:17;;;;;;;24.05;16.90;;;12.90;90.60;;;;;;5127303;28;20031;-73
2023/01/03 06:08:43;;;;;;;22.70;15.70;;;12.90;90.50;;;;;;5129002;28;20526;-74
2023/01/03 06:11:14;;;;;;;29.77;16.67;;;12.90;90.60;;;;;;5127968;28;20028;-73
2023/01/03 06:13:40;;;;;;;27.50;16.45;;;12.90;90.50;;;;;;5109469;28;20031;-73
2023/01/03 06:18:54;;;;;;;22.63;16.20;;;12.90;90.50;;;;;;5117315;28;20086;-75
2023/01/03 06:21:19;;;;;;;26.27;16.27;;;12.90;90.50;;;;;;5096688;28;20035;-74
2023/01/03 06:23:46;;;;;;;24.45;16.48;;;12.90;90.50;;;;;;5114128;28;20077;-72
2023/01/03 06:26:13;;;;;;;21.90;15.27;;;12.90;90.50;;;;;;5096319;28;20552;-75
2023/01/03 06:28:39;;;;;;;23.73;16.63;;;12.90;90.50;;;;;;5115996;28;20032;-73
2023/01/03 06:31:05;;;;;;;25.10;17.23;;;13.00;90.50;;;;;;5109438;28;20042;-73
2023/01/03 06:33:31;;;;;;;23.95;17.73;;;12.90;90.50;;;;;;5078779;28;20135;-73
2023/01/03 06:36:01;;;;;;;28.38;17.70;;;13.00;90.60;;;;;;5055838;28;20056;-73
2023/01/03 06:38:27;;;;;;;26.77;16.35;;;13.00;90.60;;;;;;5073237;28;20036;-74
2023/01/03 06:40:53;;;;;;;25.65;16.42;;;13.00;90.50;;;;;;5054946;28;20067;-72
2023/01/03 06:43:19;;;;;;;24.38;16.35;;;13.00;90.50;;;;;;5076076;28;20044;-73
2023/01/03 06:54:02;;;;;;;25.67;16.60;;;13.00;90.50;;;;;;5093436;28;20039;-73
2023/01/03 06:56:27;;;;;;;21.60;15.45;;;13.00;90.40;;;;;;5092685;28;20044;-72
2023/01/03 06:58:53;;;;;;;28.13;15.88;;;13.00;90.40;;;;;;5074321;28;20058;-74
2023/01/03 07:01:19;;;;;;;24.20;16.20;;;13.00;90.30;;;;;;5092774;28;20028;-74
2023/01/03 07:03:45;;;;;;;23.23;15.68;;;13.00;90.40;;;;;;5074628;28;20028;-74
2023/01/03 07:06:10;;;;;;;22.73;15.55;;;13.10;90.40;;;;;;5092770;28;20404;-74
2023/01/03 07:08:36;;;;;;;23.02;15.55;;;13.10;90.40;;;;;;5074220;28;20088;-73
2023/01/03 07:11:02;;;;;;;25.08;16.00;;;13.10;90.30;;;;;;5092194;28;20028;-72
2023/01/03 07:16:14;;;;;;;26.30;15.50;;;13.20;90.20;;;;;;5092822;28;20169;-75
2023/01/03 07:18:39;;;;;;;28.60;15.38;;;13.20;90.30;;;;;;5094410;28;20420;-73
2023/01/03 07:21:06;;;;;;;21.45;14.52;;;13.20;90.20;;;;;;5073935;28;20071;-74
2023/01/03 07:23:32;;;;;;;22.35;15.05;;;13.20;90.20;;;;;;5092480;28;20043;-71
2023/01/03 07:25:57;;;;;;;25.83;15.82;;;13.20;90.20;;;;;;5074277;28;20040;-73
2023/01/03 07:28:25;;;;;;;24.73;15.32;;;13.20;90.10;;;;;;5074938;28;20043;-72
2023/01/03 07:30:51;;;;;;;25.20;15.55;;;13.30;90.20;;;;;;5096497;28;20125;-75
2023/01/03 07:33:17;;;;;;;23.85;15.73;;;13.30;90.20;;;;;;5104197;28;20024;-73
2023/01/03 07:35:44;;;;;;;20.38;13.77;;;13.30;90.10;;;;;;5102545;28;20060;-73
2023/01/03 07:38:11;;;;;;;25.13;15.00;;;13.30;90.10;;;;;;5096423;28;20036;-74
2023/01/03 07:40:38;;;;;;;25.88;14.93;;;13.30;90.10;;;;;;5078085;28;20111;-74
2023/01/03 07:45:48;;;;;;;;;;;13.40;89.70;;;;;;5109007;28;20047;-74
2023/01/03 07:48:14;;;;;;;22.52;13.60;;;13.40;89.40;;;;;;5102731;28;19908;-72
2023/01/03 07:50:41;;;;;;;20.63;12.98;;;13.40;89.80;;;;;;5109820;28;20036;-70
2023/01/03 07:53:07;;;;;;;23.30;14.48;;;13.40;89.80;;;;;;5116167;28;20028;-70
2023/01/03 07:55:34;;;;;;;20.42;13.75;;;13.50;89.80;;;;;;5115970;28;20039;-66
2023/01/03 07:58:00;;;;;;;23.98;14.75;;;13.60;89.70;;;;;;5115974;28;20040;-70
2023/01/03 08:00:26;;;;;;;23.38;14.27;;;13.60;89.60;;;;;;5097447;28;20032;-69
2023/01/03 08:02:53;;;;;;;22.52;14.13;;;13.70;89.50;;;;;;5097411;28;20042;-68
2023/01/03 08:05:20;;;;;;;22.17;13.63;;;13.60;89.20;;;;;;5115933;28;20042;-69
2023/01/03 08:07:50;;;;;;;19.38;13.52;;;13.70;89.30;;;;;;5094994;28;20044;-69
2023/01/03 08:13:16;;;;;;;22.95;14.00;;;13.80;89.00;;;;;;5095488;28;20038;-67
2023/01/03 08:15:55;;;;;;;25.13;15.70;;;13.80;88.40;;;;;;5122004;27;20042;-67
2023/01/03 08:18:23;;;;;;;28.00;14.65;;;13.90;88.70;;;;;;5120487;27;20395;-68
2023/01/03 08:20:54;;;;;;;22.08;14.48;;;14.00;88.70;;;;;;5090976;28;20028;-67
2023/01/03 08:23:23;;;;;;;17.48;13.30;;;14.00;88.50;;;;;;5076289;28;20407;-68
2023/01/03 08:25:50;;;;;;;25.77;14.85;;;14.10;88.60;;;;;;5076882;28;20131;-67
2023/01/03 08:28:16;;;;;;;25.52;15.25;;;14.20;88.50;;;;;;5094906;28;20028;-70
2023/01/03 08:30:49;;;;;;;26.98;16.45;;;14.20;88.20;;;;;;5094951;28;20050;-68
2023/01/03 08:33:17;;;;;;;22.10;15.02;;;14.20;88.10;;;;;;5094983;28;20055;-67
2023/01/03 08:35:51;;;;;;;26.63;15.00;;;14.20;88.00;;;;;;5076365;28;20041;-68
2023/01/03 08:38:23;;;;;;;27.20;15.65;;;14.20;88.00;;;;;;5091137;28;20396;-67
2023/01/03 08:40:50;;;;;;;26.23;16.10;;;14.20;87.90;;;;;;5091879;28;20075;-66
2023/01/03 08:43:17;;;;;;;25.98;16.05;;;14.30;87.90;;;;;;5091619;28;20138;-68
2023/01/03 08:45:43;;;;;;;26.50;15.63;;;14.30;87.80;;;;;;5076003;28;20127;-68
2023/01/03 08:48:10;;;;;;;25.20;15.45;;;14.30;87.80;;;;;;5091878;28;20156;-66
2023/01/03 08:50:36;;;;;;;24.15;16.15;;;14.30;87.70;;;;;;5095003;28;20101;-68
2023/01/03 08:53:04;;;;;;;29.65;16.08;;;14.30;87.60;;;;;;5093185;28;20131;-68
2023/01/03 08:55:29;;;;;;;25.00;15.95;;;14.40;87.80;;;;;;5094581;28;20050;-67
2023/01/03 08:57:55;;;;;;;22.63;16.23;;;14.50;87.60;;;;;;5094535;28;20028;-67
2023/01/03 09:00:21;;;;;;;27.83;16.90;;;14.50;87.10;;;;;;5093076;28;20028;-67
2023/01/03 09:02:47;;;;;;;25.88;16.98;;;14.40;87.10;;;;;;5095777;28;20039;-69
2023/01/03 09:05:13;;;;;;;27.30;17.38;;;14.50;87.00;;;;;;5095419;28;20044;-67
2023/01/03 09:07:38;;;;;;;28.08;17.85;;;14.50;87.10;;;;;;5094130;27;20069;-67
2023/01/03 09:10:04;;;;;;;22.60;15.90;;;14.50;87.10;;;;;;5092296;28;20043;-69
2023/01/03 09:12:30;;;;;;;29.20;17.98;;;14.60;87.10;;;;;;5097639;28;20462;-68
2023/01/03 09:14:56;;;;;;;26.15;17.02;;;14.60;86.80;;;;;;5114658;28;20120;-69
2023/01/03 09:17:22;;;;;;;29.20;17.77;;;14.60;86.50;;;;;;5114413;28;20046;-68
2023/01/03 09:19:47;;;;;;;32.17;19.38;;;14.60;86.70;;;;;;5114564;28;20420;-68
2023/01/03 09:22:13;;;;;;;26.10;17.75;;;14.60;86.80;;;;;;5114130;28;20116;-67
2023/01/03 09:24:38;;;;;;;27.15;17.85;;;14.60;86.60;;;;;;5095986;28;20028;-68
2023/01/03 09:27:04;;;;;;;30.88;19.05;;;14.70;86.60;;;;;;5114330;27;20051;-68
2023/01/03 09:29:30;;;;;;;34.97;19.17;;;14.70;87.10;;;;;;5096473;28;20031;-67
2023/01/03 09:31:56;;;;;;;26.02;18.15;;;14.70;86.40;;;;;;5094796;28;20031;-68
2023/01/03 09:34:21;;;;;;;25.65;18.27;;;14.80;86.50;;;;;;5122149;27;20041;-69
2023/01/03 09:36:47;;;;;;;31.60;18.92;;;14.80;86.40;;;;;;5121261;27;20104;-68
2023/01/03 09:39:13;;;;;;;30.05;18.20;;;14.80;86.20;;;;;;5097686;27;20035;-68
2023/01/03 09:41:39;;;;;;;31.55;19.60;;;14.80;86.30;;;;;;5124976;27;20462;-66
2023/01/03 09:44:07;;;;;;;29.85;18.17;;;14.80;86.40;;;;;;5115721;27;20054;-69
2023/01/03 09:46:37;;;;;;;31.13;18.65;;;14.90;86.30;;;;;;5093354;28;20106;-68
2023/01/03 09:49:06;;;;;;;29.30;19.40;;;14.90;86.20;;;;;;5095572;28;20430;-67
2023/01/03 10:04:03;;;;;;;26.30;18.02;;;15.20;85.60;;;;;;5093044;28;20039;-69
2023/01/03 10:06:53;;;;;;;31.77;19.77;;;15.30;85.80;;;;;;5013748;28;20083;-69
2023/01/03 10:09:26;;;;;;;31.42;18.85;;;15.30;85.70;;;;;;5013753;28;20064;-68
2023/01/03 10:12:10;;;;;;;31.60;20.02;;;15.20;85.40;;;;;;5074459;28;20476;-69
2023/01/03 10:14:42;;;;;;;32.50;19.77;;;15.30;85.40;;;;;;5105563;28;20064;-69
2023/01/03 10:17:10;;;;;;;38.15;19.25;;;15.40;85.20;;;;;;5109284;27;20049;-67
2023/01/03 10:19:45;;;;;;;30.65;18.75;;;15.40;85.20;;;;;;5112259;27;20039;-67
2023/01/03 10:22:24;;;;;;;27.50;18.17;;;15.50;85.00;;;;;;5126767;27;20415;-68
2023/01/03 10:25:03;;;;;;;31.10;19.27;;;15.60;85.00;;;;;;5093902;28;20016;-68
2023/01/03 10:27:32;;;;;;;31.88;20.02;;;15.60;84.80;;;;;;5094593;28;20521;-69
2023/01/03 10:30:06;;;;;;;38.25;18.42;;;15.60;83.80;;;;;;5102335;28;20058;-68
2023/01/03 10:32:50;;;;;;;;;;;15.60;83.80;;;;;;5083629;28;20455;-69
2023/01/03 10:35:30;;;;;;;30.13;19.88;;;15.70;83.90;;;;;;5104456;28;19911;-68
2023/01/03 10:37:57;;;;;;;30.20;18.90;;;15.70;83.80;;;;;;5103229;28;20044;-68
2023/01/03 10:40:45;;;;;;;32.35;21.05;;;15.70;83.70;;;;;;5095207;28;20165;-70
2023/01/03 10:43:19;;;;;;;33.22;20.42;;;15.90;84.50;;;;;;5110200;28;20031;-68
2023/01/03 10:45:57;;;;;;;33.17;19.60;;;15.90;83.50;;;;;;5097501;28;20101;-69
2023/01/03 10:48:24;;;;;;;32.15;19.75;;;16.00;83.40;;;;;;5111694;28;20111;-68
2023/01/03 10:50:50;;;;;;;32.53;21.00;;;16.00;83.40;;;;;;5093816;28;20431;-70
2023/01/03 10:53:20;;;;;;;38.25;21.55;;;16.10;83.60;;;;;;5094266;28;20474;-68
2023/01/03 10:55:52;;;;;;;36.00;22.13;;;16.10;83.50;;;;;;5094120;28;20395;-67
2023/01/03 10:58:24;;;;;;;37.22;22.45;;;16.10;83.50;;;;;;5110152;28;20395;-69
2023/01/03 11:00:53;;;;;;;33.80;20.48;;;16.10;83.50;;;;;;5112157;28;20031;-67
2023/01/03 11:03:24;;;;;;;39.08;21.77;;;16.20;83.70;;;;;;5111514;28;20032;-70
2023/01/03 11:05:56;;;;;;;31.05;21.63;;;16.30;83.50;;;;;;5093833;28;20059;-70
2023/01/03 11:08:33;;;;;;;34.58;21.75;;;16.30;83.50;;;;;;5087950;28;20032;-67
2023/01/03 11:11:00;;;;;;;31.45;21.67;;;16.30;83.30;;;;;;5091687;28;20185;-68
2023/01/03 11:13:36;;;;;;;32.28;21.75;;;16.30;83.40;;;;;;5075415;28;20048;-68
2023/01/03 11:16:11;;;;;;;39.42;22.95;;;16.40;83.20;;;;;;5086279;28;20529;-69
2023/01/03 11:18:36;;;;;;;31.85;21.52;;;16.40;83.30;;;;;;5112245;28;20460;-67
2023/01/03 11:21:14;;;;;;;35.88;22.98;;;16.40;83.30;;;;;;5112250;28;20036;-69
2023/01/03 11:23:54;;;;;;;32.30;22.92;;;16.40;83.60;;;;;;5112017;28;20028;-68
2023/01/03 11:26:48;;;;;;;37.90;23.92;;;16.50;83.80;;;;;;5112070;28;20517;-68
2023/01/03 11:29:32;;;;;;;34.30;23.52;;;16.40;83.30;;;;;;5081643;28;20107;-69
2023/01/03 11:32:48;;;;;;;32.20;21.90;;;16.40;84.00;;;;;;5091896;28;20064;-69
2023/01/03 11:35:25;;;;;;;33.55;23.17;;;16.50;84.00;;;;;;5057505;28;20043;-67
2023/01/03 11:37:57;;;;;;;35.33;24.40;;;16.50;83.50;;;;;;5073291;28;20097;-69
2023/01/03 11:40:29;;;;;;;44.25;24.15;;;16.60;83.40;;;;;;5091476;28;20029;-68
2023/01/03 11:43:13;;;;;;;34.88;21.10;;;16.60;83.70;;;;;;5091475;28;20030;-67
2023/01/03 11:46:22;;;;;;;35.05;22.80;;;16.60;83.60;;;;;;5073143;28;20456;-68
2023/01/03 11:48:53;;;;;;;43.00;22.48;;;16.60;83.50;;;;;;5056028;28;20434;-68
2023/01/03 11:51:51;;;;;;;32.80;21.55;;;16.70;83.70;;;;;;5095071;28;20038;-67
2023/01/03 11:54:41;;;;;;;32.58;22.15;;;16.60;83.40;;;;;;5111224;28;20559;-68
2023/01/03 11:57:29;;;;;;;30.50;21.83;;;16.50;83.50;;;;;;5110302;28;20044;-69
2023/01/03 12:00:01;;;;;;;39.00;23.60;;;16.50;83.20;;;;;;5111959;28;20076;-68
2023/01/03 12:02:59;;;;;;;33.13;22.58;;;16.50;83.50;;;;;;5093582;28;20391;-68
2023/01/03 12:05:36;;;;;;;35.00;22.25;;;16.50;83.40;;;;;;5093694;28;20040;-67
2023/01/03 12:08:20;;;;;;;32.58;22.15;;;16.60;84.20;;;;;;5112057;28;20035;-68
2023/01/03 12:11:05;;;;;;;;;;;16.50;83.40;;;;;;5093960;28;20169;-67
2023/01/03 12:13:48;;;;;;;34.78;22.50;;;16.50;84.60;;;;;;5111085;28;19904;-67
2023/01/03 12:16:28;;;;;;;31.30;21.13;;;16.60;84.20;;;;;;5094944;28;20522;-67
2023/01/03 12:18:58;;;;;;;37.75;22.02;;;16.60;84.00;;;;;;5097009;28;20038;-69
2023/01/03 12:21:29;;;;;;;32.35;20.90;;;16.70;83.50;;;;;;5115335;28;20499;-66
2023/01/03 12:24:01;;;;;;;33.63;21.65;;;16.70;83.70;;;;;;5096772;28;20028;-68
2023/01/03 12:26:29;;;;;;;30.23;21.52;;;16.70;83.80;;;;;;5115145;28;20043;-68
2023/01/03 12:29:20;;;;;;;33.15;21.73;;;16.80;83.50;;;;;;5099854;28;20104;-68
2023/01/03 12:31:51;;;;;;;30.63;20.60;;;16.80;83.80;;;;;;5094494;28;20040;-69
2023/01/03 12:34:35;;;;;;;32.85;20.20;;;16.90;83.50;;;;;;5076301;28;20036;-68
2023/01/03 12:37:22;;;;;;;32.92;22.20;;;17.00;83.70;;;;;;5094505;28;20040;-66
2023/01/03 12:39:59;;;;;;;37.13;22.95;;;17.10;83.50;;;;;;5094696;28;20067;-64
2023/01/03 12:42:34;;;;;;;35.88;21.80;;;17.10;83.20;;;;;;5076598;28;20048;-68
2023/01/03 12:45:06;;;;;;;32.33;22.15;;;17.10;83.00;;;;;;5094335;28;20509;-67
2023/01/03 12:47:51;;;;;;;30.13;21.25;;;17.10;82.70;;;;;;5094636;28;20047;-67
2023/01/03 12:50:36;;;;;;;28.77;19.65;;;17.10;82.80;;;;;;5094673;28;20081;-67
2023/01/03 12:53:37;;;;;;;30.30;20.33;;;17.10;83.00;;;;;;5094531;28;20499;-68
2023/01/03 12:56:42;;;;;;;37.17;21.30;;;17.10;82.90;;;;;;5076512;28;20089;-68
2023/01/03 12:59:26;;;;;;;;;;;17.10;82.60;;;;;;5094062;28;20527;-68
2023/01/03 13:01:57;;;;;;;28.35;18.80;;;17.10;82.40;;;;;;5094328;28;19994;-68
2023/01/03 13:04:23;;;;;;;33.60;20.58;;;17.10;82.40;;;;;;5075792;28;20040;-69
2023/01/03 13:07:36;;;;;;;32.53;20.33;;;17.10;82.30;;;;;;5094389;28;20040;-70
2023/01/03 13:10:12;;;;;;;26.10;18.70;;;17.10;82.30;;;;;;5081281;28;20111;-72
2023/01/03 13:12:42;;;;;;;31.63;21.02;;;17.20;82.50;;;;;;5093799;28;20107;-70
2023/01/03 13:15:26;;;;;;;30.08;19.42;;;17.20;82.50;;;;;;5075648;28;20024;-68
2023/01/03 13:17:51;;;;;;;32.55;19.35;;;17.30;82.40;;;;;;5093826;28;20389;-71
2023/01/03 13:20:31;;;;;;;32.25;20.30;;;17.30;82.70;;;;;;5075789;28;20062;-70
2023/01/03 13:22:59;;;;;;;31.48;19.23;;;17.30;82.50;;;;;;5093941;28;20476;-70
2023/01/03 13:25:41;;;;;;;33.58;19.85;;;17.30;82.50;;;;;;5091839;28;20498;-71
2023/01/03 13:28:18;;;;;;;27.02;16.38;;;17.30;82.50;;;;;;5078030;28;20500;-69
2023/01/03 13:30:44;;;;;;;24.42;16.33;;;17.30;83.30;;;;;;5093764;28;20063;-70
2023/01/03 13:33:10;;;;;;;26.17;17.17;;;17.40;82.90;;;;;;5093722;28;20392;-69
2023/01/03 13:35:52;;;;;;;29.48;16.75;;;17.40;82.90;;;;;;5094588;28;20028;-68
2023/01/03 13:38:28;;;;;;;22.33;15.02;;;17.40;83.00;;;;;;5093836;28;20035;-67
2023/01/03 13:41:00;;;;;;;18.65;12.50;;;17.30;83.30;;;;;;5075113;28;20326;-69
2023/01/03 13:43:32;;;;;;;22.58;12.10;;;17.30;83.30;;;;;;5075216;28;20031;-67
2023/01/03 13:46:16;;;;;;;23.52;12.48;;;17.30;83.50;;;;;;5093493;28;20035;-67
2023/01/03 13:48:52;;;;;;;;;;;17.30;84.00;;;;;;5075266;28;20518;-67
2023/01/03 13:51:33;;;;;;;23.20;12.00;;;17.20;83.90;;;;;;5093182;28;19904;-67